Time;durP1;ratioP1;P1;durP2;ratioP2;P2;SDS_P1;SDS_P2;PMS_P1;PMS_P2;Temp;Humidity;BMP_temperature;BMP_pressure;BME280_temperature;BME280_humidity;BME280_pressure;Samples;Min_cycle;Max_cycle;Signal;HPM_P1;HPM_P2
2021/10/22 00:00:17;;;;;;;19.10;7.80;;;;;;;14.85;60.01;98835.28;5035591;28;20029;-51
2021/10/22 00:02:43;;;;;;;21.20;10.10;;;;;;;14.92;59.70;98833.34;5053433;28;20025;-52
2021/10/22 00:05:09;;;;;;;24.33;13.82;;;;;;;14.98;59.85;98827.16;5053384;28;20036;-51
2021/10/22 00:07:35;;;;;;;22.60;12.50;;;;;;;14.93;60.06;98827.03;5053347;28;20017;-51
2021/10/22 00:10:01;;;;;;;22.17;9.38;;;;;;;14.85;60.21;98818.59;5035396;28;20407;-50
2021/10/22 00:12:27;;;;;;;18.63;7.65;;;;;;;14.76;60.22;98828.69;5053265;28;20426;-51
2021/10/22 00:14:52;;;;;;;15.45;5.03;;;;;;;14.70;60.75;98829.59;5035402;28;20025;-51
2021/10/22 00:17:18;;;;;;;14.23;5.40;;;;;;;14.73;60.76;98818.59;5053127;28;20025;-51
2021/10/22 00:19:44;;;;;;;17.88;4.88;;;;;;;14.71;60.75;98823.28;5051901;28;20115;-51
2021/10/22 00:22:10;;;;;;;16.77;5.68;;;;;;;14.56;60.92;98821.03;5035147;28;20025;-51
2021/10/22 00:24:35;;;;;;;18.08;8.88;;;;;;;14.41;61.41;98825.84;5053022;28;20028;-51
2021/10/22 00:27:02;;;;;;;22.52;10.13;;;;;;;14.35;61.85;98820.44;5052975;28;20021;-51
2021/10/22 00:29:28;;;;;;;28.05;9.13;;;;;;;14.43;62.35;98819.34;5051587;28;20033;-51
2021/10/22 00:31:53;;;;;;;15.88;6.25;;;;;;;14.49;61.78;98821.09;5052840;28;20422;-51
2021/10/22 00:34:19;;;;;;;14.98;6.22;;;;;;;14.23;62.01;98827.47;5034982;28;20028;-51
2021/10/22 00:36:45;;;;;;;19.75;8.68;;;;;;;14.10;62.22;98827.63;5052781;28;20541;-51
2021/10/22 00:39:10;;;;;;;17.70;7.05;;;;;;;13.95;62.28;98826.16;5052719;28;20438;-51
2021/10/22 00:41:41;;;;;;;36.70;11.70;;;;;;;13.88;62.79;98828.03;5052764;28;20116;-51
2021/10/22 00:44:07;;;;;;;14.55;8.02;;;;;;;13.85;62.96;98831.13;5052584;28;20052;-51
2021/10/22 00:46:37;;;;;;;15.57;6.82;;;;;;;13.84;63.08;98828.69;5052608;28;20071;-50
2021/10/22 00:49:07;;;;;;;27.70;6.60;;;;;;;13.83;63.37;98825.25;5052443;28;20025;-51
2021/10/22 00:51:33;;;;;;;15.75;5.53;;;;;;;14.04;64.00;98829.28;5034513;28;20072;-51
2021/10/22 00:53:59;;;;;;;28.92;8.70;;;;;;;14.34;62.87;98826.72;5052441;28;20514;-52
2021/10/22 00:56:25;;;;;;;16.95;5.93;;;;;;;14.62;62.16;98816.69;5052409;28;20104;-51
2021/10/22 00:58:51;;;;;;;12.52;4.90;;;;;;;14.46;61.56;98813.59;5052447;28;20386;-50
2021/10/22 01:01:18;;;;;;;18.00;6.00;;;;;;;14.19;61.87;98832.38;5052313;28;20029;-52
2021/10/22 01:03:43;;;;;;;10.52;4.85;;;;;;;14.07;62.52;98831.50;5052596;28;20029;-51
2021/10/22 01:06:09;;;;;;;20.45;8.05;;;;;;;14.23;63.45;98839.88;5052285;28;20499;-52
2021/10/22 01:08:35;;;;;;;15.90;7.70;;;;;;;14.51;62.52;98836.72;5052093;28;20020;-52
2021/10/22 01:11:02;;;;;;;15.65;6.15;;;;;;;14.56;61.96;98832.38;5052151;28;20029;-51
2021/10/22 01:13:29;;;;;;;15.93;6.53;;;;;;;14.38;62.21;98829.75;5034235;28;20028;-50
2021/10/22 01:15:55;;;;;;;22.30;7.93;;;;;;;14.70;62.78;98832.22;5034226;28;20025;-51
2021/10/22 01:18:24;;;;;;;18.23;6.38;;;;;;;15.28;61.71;98833.44;5052061;28;20537;-51
2021/10/22 01:21:01;;;;;;;16.17;4.60;;;;;;;15.54;60.48;98840.94;5052039;28;20115;-51
2021/10/22 01:23:27;;;;;;;17.05;6.05;;;;;;;15.43;61.18;98838.28;5052248;28;20032;-51
2021/10/22 01:25:52;;;;;;;24.15;6.97;;;;;;;15.20;63.04;98834.56;5034151;28;20033;-51
2021/10/22 01:28:20;;;;;;;15.82;5.10;;;;;;;14.93;64.09;98834.97;5051823;28;20549;-51
2021/10/22 01:30:47;;;;;;;23.92;6.07;;;;;;;14.71;65.73;98837.28;5051923;28;20045;-51
2021/10/22 01:33:17;;;;;;;20.38;6.97;;;;;;;14.67;66.51;98836.13;5033989;28;20048;-51
2021/10/22 01:35:45;;;;;;;16.88;5.00;;;;;;;14.47;65.42;98828.41;5051876;28;20127;-51
2021/10/22 01:38:12;;;;;;;13.00;5.18;;;;;;;14.25;66.03;98828.06;5051767;28;20029;-51
2021/10/22 01:40:42;;;;;;;15.32;6.43;;;;;;;14.06;65.93;98829.09;5033847;28;20053;-51
2021/10/22 01:43:08;;;;;;;23.15;6.80;;;;;;;13.86;66.53;98827.44;5051747;28;20021;-52
2021/10/22 01:45:34;;;;;;;27.20;6.25;;;;;;;13.72;67.64;98828.59;5051660;28;20033;-51
2021/10/22 01:48:00;;;;;;;18.73;6.15;;;;;;;13.62;68.01;98831.72;5033745;28;20025;-50
2021/10/22 01:50:26;;;;;;;24.20;6.07;;;;;;;13.65;69.22;98831.31;5051080;28;20564;-51
2021/10/22 01:52:51;;;;;;;15.25;6.30;;;;;;;13.78;68.55;98827.72;5033747;28;20098;-50
2021/10/22 01:55:17;;;;;;;33.70;10.13;;;;;;;13.83;68.62;98827.91;5051554;28;20028;-51
2021/10/22 01:57:46;;;;;;;17.52;5.95;;;;;;;13.84;68.74;98831.34;5033690;28;20025;-51
2021/10/22 02:00:11;;;;;;;11.43;5.07;;;;;;;13.66;69.12;98830.28;5051541;28;20529;-51
2021/10/22 02:02:37;;;;;;;19.90;8.65;;;;;;;13.44;70.00;98834.31;5051525;28;20025;-50
2021/10/22 02:05:03;;;;;;;17.05;6.40;;;;;;;13.18;70.65;98836.91;5051450;28;20025;-51
2021/10/22 02:07:30;;;;;;;17.42;5.93;;;;;;;12.97;71.21;98832.78;5051352;28;20032;-50
2021/10/22 02:09:57;;;;;;;24.83;8.82;;;;;;;12.84;71.68;98826.78;5033607;28;20017;-51
2021/10/22 02:12:22;;;;;;;21.75;9.40;;;;;;;12.73;71.86;98825.63;5051394;28;20041;-51
2021/10/22 02:14:48;;;;;;;18.92;7.40;;;;;;;12.79;72.38;98830.06;5051430;28;20029;-50
2021/10/22 02:17:14;;;;;;;18.70;6.30;;;;;;;12.85;71.50;98831.03;5033414;28;20029;-51
2021/10/22 02:19:40;;;;;;;11.18;5.30;;;;;;;12.84;71.38;98835.50;5054207;28;20032;-51
2021/10/22 02:22:06;;;;;;;24.35;7.03;;;;;;;12.93;71.27;98839.50;5055270;28;20021;-51
2021/10/22 02:24:32;;;;;;;16.00;6.35;;;;;;;13.06;70.50;98837.78;5037406;28;20021;-51
2021/10/22 02:26:57;;;;;;;15.73;5.47;;;;;;;13.13;70.43;98831.47;5037267;28;20047;-51
2021/10/22 02:29:23;;;;;;;13.10;5.22;;;;;;;13.06;69.62;98827.25;5055149;28;20028;-50
2021/10/22 02:31:49;;;;;;;19.05;4.97;;;;;;;12.80;70.29;98831.69;5055125;28;20037;-51
2021/10/22 02:34:15;;;;;;;15.50;7.15;;;;;;;12.84;70.93;98835.50;5037193;28;20082;-51
2021/10/22 02:36:41;;;;;;;15.82;7.22;;;;;;;13.03;70.23;98831.13;5055105;28;20032;-51
2021/10/22 02:39:07;;;;;;;17.67;6.38;;;;;;;12.98;69.87;98834.41;5055025;28;20033;-51
2021/10/22 02:41:32;;;;;;;17.98;7.15;;;;;;;12.87;70.33;98836.91;5037074;28;20140;-51
2021/10/22 02:43:58;;;;;;;10.43;3.88;;;;;;;12.96;69.97;98841.72;5037020;28;20025;-51
2021/10/22 02:46:24;;;;;;;15.38;4.80;;;;;;;12.93;69.90;98842.13;5054862;28;20053;-51
2021/10/22 02:48:50;;;;;;;24.13;9.98;;;;;;;12.90;70.47;98833.84;5054777;28;20017;-51
2021/10/22 02:51:16;;;;;;;11.82;4.05;;;;;;;12.94;70.22;98845.59;5054625;28;20037;-50
2021/10/22 02:53:42;;;;;;;15.45;5.30;;;;;;;12.91;70.04;98846.78;5036835;28;20128;-51
2021/10/22 02:56:08;;;;;;;9.15;4.22;;;;;;;13.02;69.81;98850.59;5036757;28;20155;-51
2021/10/22 02:58:33;;;;;;;11.73;4.05;;;;;;;13.05;69.97;98857.25;5054735;28;20119;-51
2021/10/22 03:00:59;;;;;;;10.13;4.63;;;;;;;13.03;69.80;98851.41;5054618;28;20170;-50
2021/10/22 03:03:25;;;;;;;14.65;4.30;;;;;;;13.10;69.55;98852.16;5054597;28;20029;-51
2021/10/22 03:05:51;;;;;;;15.35;7.07;;;;;;;13.19;69.63;98851.69;5054543;28;20483;-51
2021/10/22 03:08:16;;;;;;;21.90;7.68;;;;;;;13.31;68.80;98849.22;5036495;28;20029;-51
2021/10/22 03:10:42;;;;;;;12.95;5.55;;;;;;;13.32;68.95;98850.84;5036517;28;20112;-51
2021/10/22 03:13:08;;;;;;;17.55;7.68;;;;;;;13.35;68.71;98844.31;5036524;28;20372;-51
2021/10/22 03:15:34;;;;;;;13.73;6.75;;;;;;;13.29;68.46;98848.63;5036417;28;20029;-51
2021/10/22 03:18:00;;;;;;;19.77;8.50;;;;;;;13.27;69.10;98855.09;5054319;28;20032;-50
2021/10/22 03:20:26;;;;;;;14.43;4.65;;;;;;;13.36;69.30;98851.19;5054224;28;20475;-51
2021/10/22 03:22:52;;;;;;;14.85;5.15;;;;;;;13.44;68.80;98847.50;5036293;28;20017;-50
2021/10/22 03:25:20;;;;;;;25.05;7.88;;;;;;;13.55;68.96;98852.88;5036221;28;20120;-51
2021/10/22 03:27:48;;;;;;;21.70;6.90;;;;;;;13.71;68.75;98848.91;5054074;28;20025;-50
2021/10/22 03:30:14;;;;;;;22.58;6.80;;;;;;;13.89;67.86;98842.84;5052866;28;20542;-51
2021/10/22 03:32:40;;;;;;;16.40;6.07;;;;;;;13.89;66.94;98842.84;5054014;28;20070;-51
2021/10/22 03:35:06;;;;;;;22.33;8.90;;;;;;;13.89;67.29;98855.25;5053982;28;20071;-51
2021/10/22 03:37:33;;;;;;;20.50;8.85;;;;;;;13.95;67.62;98855.16;5053983;28;20040;-51
2021/10/22 03:39:59;;;;;;;13.88;5.93;;;;;;;14.10;67.18;98856.66;5053911;28;20017;-52
2021/10/22 03:42:25;;;;;;;13.68;4.80;;;;;;;14.07;66.91;98857.91;5053866;28;20032;-52
2021/10/22 03:44:53;;;;;;;20.10;8.30;;;;;;;14.07;67.77;98851.81;5053908;28;20021;-51
2021/10/22 03:47:19;;;;;;;23.52;8.40;;;;;;;14.24;67.41;98858.13;5053760;28;20064;-51
2021/10/22 03:49:45;;;;;;;19.92;6.10;;;;;;;14.35;67.32;98862.69;5053417;28;20057;-51
2021/10/22 03:52:11;;;;;;;12.48;5.32;;;;;;;14.66;66.42;98854.84;5053734;28;20027;-52
2021/10/22 03:54:36;;;;;;;13.70;4.10;;;;;;;14.64;65.88;98852.41;5053690;28;20033;-51
2021/10/22 03:57:02;;;;;;;26.20;9.50;;;;;;;14.49;66.17;98862.53;5035673;28;20092;-51
2021/10/22 03:59:28;;;;;;;13.68;5.78;;;;;;;14.41;65.85;98863.63;5053558;28;20108;-52
2021/10/22 04:01:53;;;;;;;17.17;4.75;;;;;;;14.27;66.19;98872.72;5053484;28;20013;-50
2021/10/22 04:04:20;;;;;;;29.13;7.00;;;;;;;14.15;67.02;98881.38;5035475;28;20025;-51
2021/10/22 04:06:45;;;;;;;19.75;5.90;;;;;;;14.24;66.75;98883.72;5052114;28;20025;-51
2021/10/22 04:09:15;;;;;;;19.77;6.30;;;;;;;14.25;66.11;98885.34;5053274;28;20048;-51
2021/10/22 04:11:40;;;;;;;15.15;4.68;;;;;;;14.16;66.26;98887.44;5053351;28;20028;-51
2021/10/22 04:14:06;;;;;;;14.38;5.40;;;;;;;14.07;65.62;98894.03;5053211;28;20033;-51
2021/10/22 04:16:32;;;;;;;25.23;10.68;;;;;;;13.91;66.55;98890.94;5053229;28;20511;-50
2021/10/22 04:18:58;;;;;;;27.38;10.68;;;;;;;14.06;66.63;98895.06;5051893;28;20040;-51
2021/10/22 04:21:23;;;;;;;21.00;5.07;;;;;;;14.30;65.90;98888.91;5051819;28;20017;-51
2021/10/22 04:23:49;;;;;;;23.40;6.45;;;;;;;14.42;65.33;98891.63;5053111;28;20017;-51
2021/10/22 04:26:15;;;;;;;12.75;5.03;;;;;;;14.51;65.20;98892.97;5053050;28;20391;-51
2021/10/22 04:28:41;;;;;;;14.77;4.68;;;;;;;14.39;64.69;98898.19;5052910;28;20025;-49
2021/10/22 04:31:09;;;;;;;15.98;5.22;;;;;;;14.19;65.11;98892.31;5052816;28;20094;-51
2021/10/22 04:33:35;;;;;;;15.40;7.57;;;;;;;14.06;66.09;98887.13;5052891;28;20025;-51
2021/10/22 04:36:00;;;;;;;18.02;5.95;;;;;;;14.02;66.10;98884.13;5052999;28;20039;-50
2021/10/22 04:41:13;;;;;;;15.63;4.88;;;;;;;14.05;66.15;98891.63;5052748;28;20035;-52
2021/10/22 04:43:39;;;;;;;9.65;4.32;;;;;;;14.06;66.25;98889.78;5052741;28;20033;-51
2021/10/22 04:46:04;;;;;;;13.77;4.82;;;;;;;14.05;66.06;98899.53;5052654;28;20368;-51
2021/10/22 04:48:30;;;;;;;15.38;4.20;;;;;;;14.00;66.23;98899.38;5051233;28;20486;-51
2021/10/22 04:50:56;;;;;;;13.25;5.05;;;;;;;13.91;66.09;98898.84;5052382;28;20052;-51
2021/10/22 04:53:28;;;;;;;13.82;4.53;;;;;;;13.85;65.95;98897.06;5052712;28;20021;-51
2021/10/22 04:55:54;;;;;;;17.25;6.60;;;;;;;13.79;65.69;98900.56;5052470;28;20040;-50
2021/10/22 04:58:20;;;;;;;18.20;4.85;;;;;;;13.78;65.67;98904.22;5052358;28;20029;-51
2021/10/22 05:00:46;;;;;;;13.15;4.82;;;;;;;13.73;65.54;98901.44;5052381;28;20021;-50
2021/10/22 05:03:12;;;;;;;14.45;4.53;;;;;;;13.63;65.90;98898.47;5034430;28;20025;-50
2021/10/22 05:05:37;;;;;;;18.40;6.57;;;;;;;13.53;66.29;98896.31;5034393;28;20060;-50
2021/10/22 05:08:04;;;;;;;17.48;5.65;;;;;;;13.43;66.56;98895.97;5034293;28;20511;-51
2021/10/22 05:10:30;;;;;;;18.45;5.35;;;;;;;13.31;67.00;98890.59;5052226;28;20124;-51
2021/10/22 05:12:56;;;;;;;12.02;4.90;;;;;;;13.26;67.35;98896.47;5034274;28;20025;-50
2021/10/22 05:15:24;;;;;;;12.35;4.82;;;;;;;13.31;67.38;98890.59;5052120;28;20025;-51
2021/10/22 05:17:50;;;;;;;12.30;4.00;;;;;;;13.37;67.21;98895.81;5052100;28;20104;-51
2021/10/22 05:20:16;;;;;;;21.63;6.05;;;;;;;13.47;67.16;98897.16;5050698;28;20112;-50
2021/10/22 05:22:42;;;;;;;16.80;6.32;;;;;;;13.51;67.18;98899.16;5034208;28;20120;-51
2021/10/22 05:25:11;;;;;;;14.65;4.95;;;;;;;13.54;67.07;98896.09;5051973;28;20025;-50
2021/10/22 05:27:38;;;;;;;27.67;9.52;;;;;;;13.55;67.27;98904.81;5051944;28;20017;-51
2021/10/22 05:30:07;;;;;;;16.35;6.45;;;;;;;13.59;66.96;98895.47;5051881;28;20376;-51
2021/10/22 05:32:33;;;;;;;14.05;5.15;;;;;;;13.61;67.16;98889.97;5051947;28;20028;-51
2021/10/22 05:34:59;;;;;;;143.45;57.50;;;;;;;13.59;67.23;98890.19;5051816;28;20059;-51
2021/10/22 05:37:25;;;;;;;23.98;11.52;;;;;;;13.56;67.08;98890.59;5051845;28;20495;-51
2021/10/22 05:39:51;;;;;;;17.00;4.97;;;;;;;13.56;67.62;98893.22;5051754;28;20047;-51
2021/10/22 05:42:17;;;;;;;12.00;5.60;;;;;;;13.59;67.33;98890.19;5051754;28;20562;-50
2021/10/22 05:44:43;;;;;;;12.98;4.65;;;;;;;13.64;67.25;98895.59;5051739;28;20033;-51
2021/10/22 05:47:09;;;;;;;19.23;5.18;;;;;;;13.73;66.96;98889.06;5033821;28;20127;-50
2021/10/22 05:49:38;;;;;;;22.27;5.57;;;;;;;13.86;67.25;98892.59;5050995;28;20024;-50
2021/10/22 05:52:04;;;;;;;16.70;3.72;;;;;;;14.11;66.86;98890.75;5051629;28;20491;-51
2021/10/22 05:54:33;;;;;;;15.52;4.50;;;;;;;14.42;65.85;98898.75;5033072;28;20029;-51
2021/10/22 05:56:59;;;;;;;12.68;5.05;;;;;;;14.47;65.57;98893.66;5033711;28;20411;-51
2021/10/22 05:59:24;;;;;;;20.17;5.90;;;;;;;14.58;64.88;98901.63;5050280;28;20025;-51
2021/10/22 06:01:50;;;;;;;17.60;4.93;;;;;;;14.68;64.96;98902.97;5051564;28;20068;-51
2021/10/22 06:04:16;;;;;;;16.23;3.85;;;;;;;14.71;64.75;98908.63;5051533;28;20021;-51
2021/10/22 06:06:42;;;;;;;13.88;3.53;;;;;;;14.66;64.34;98910.31;5033630;28;20101;-51
2021/10/22 06:09:08;;;;;;;25.38;6.00;;;;;;;14.68;64.42;98909.06;5051751;28;20107;-50
2021/10/22 06:11:34;;;;;;;17.50;4.22;;;;;;;14.66;64.08;98915.59;5051531;28;20017;-51
2021/10/22 06:14:00;;;;;;;27.63;5.35;;;;;;;14.40;64.49;98914.81;5051497;28;20506;-52
2021/10/22 06:16:26;;;;;;;23.23;5.50;;;;;;;14.09;65.37;98923.66;5051441;28;20025;-51
2021/10/22 06:18:53;;;;;;;26.60;7.07;;;;;;;14.06;66.09;98924.09;5051441;28;20029;-51
2021/10/22 06:21:32;;;;;;;20.50;6.25;;;;;;;14.29;66.31;98920.84;5051428;28;20495;-51
2021/10/22 06:24:04;;;;;;;15.68;6.45;;;;;;;14.46;65.95;98927.13;5051473;28;20021;-51
2021/10/22 06:26:38;;;;;;;20.35;4.32;;;;;;;14.51;65.08;98931.78;5051695;28;20402;-50
2021/10/22 06:29:05;;;;;;;16.55;4.15;;;;;;;14.36;65.04;98929.47;5051242;28;20044;-50
2021/10/22 06:31:32;;;;;;;21.98;8.63;;;;;;;14.30;65.76;98936.44;5051297;28;20500;-51
2021/10/22 06:34:00;;;;;;;33.45;10.48;;;;;;;14.46;65.76;98943.00;5051306;28;20021;-51
2021/10/22 06:36:26;;;;;;;22.08;5.85;;;;;;;14.72;65.05;98949.06;5051215;28;20021;-51
2021/10/22 06:38:52;;;;;;;21.88;5.10;;;;;;;15.04;64.47;98951.53;5051271;28;20107;-51
2021/10/22 06:41:18;;;;;;;21.85;10.40;;;;;;;15.27;63.69;98945.53;5051233;28;20028;-51
2021/10/22 06:43:45;;;;;;;18.63;6.85;;;;;;;15.24;63.25;98951.28;5051197;28;20100;-51
2021/10/22 06:46:12;;;;;;;27.38;10.73;;;;;;;15.16;63.62;98960.31;5051151;28;20017;-51
2021/10/22 06:48:40;;;;;;;35.05;10.55;;;;;;;15.16;63.37;98965.59;5051007;28;20108;-50
2021/10/22 06:51:07;;;;;;;25.55;7.63;;;;;;;14.98;63.34;98969.88;5032953;28;20045;-51
2021/10/22 06:53:34;;;;;;;16.83;4.57;;;;;;;14.79;63.60;98981.50;5051101;28;20101;-51
2021/10/22 06:55:59;;;;;;;17.98;7.47;;;;;;;14.62;64.22;98980.47;5051030;28;20033;-51
2021/10/22 06:58:25;;;;;;;24.52;9.57;;;;;;;14.58;64.63;98980.06;5051076;28;20032;-51
2021/10/22 07:00:51;;;;;;;24.95;14.05;;;;;;;14.52;64.35;98994.94;5051004;28;20033;-51
2021/10/22 07:03:20;;;;;;;29.13;8.52;;;;;;;14.52;64.76;98992.28;5051002;28;20052;-50
2021/10/22 07:08:15;;;;;;;28.02;10.68;;;;;;;14.46;65.19;99006.38;5054447;28;20025;-51
2021/10/22 07:10:41;;;;;;;28.77;14.70;;;;;;;14.83;65.00;99005.63;5054423;28;20055;-51
2021/10/22 07:13:07;;;;;;;13.77;5.93;;;;;;;15.07;64.07;99002.13;5020074;28;20036;-51
2021/10/22 07:15:33;;;;;;;44.10;12.68;;;;;;;15.14;63.51;99002.03;5054318;28;20029;-50
2021/10/22 07:17:59;;;;;;;40.53;14.63;;;;;;;15.07;63.87;99011.84;5054308;28;20083;-50
2021/10/22 07:20:30;;;;;;;16.60;3.13;;;;;;;15.09;63.34;99017.72;5036369;28;20025;-51
2021/10/22 07:23:03;;;;;;;22.05;8.05;;;;;;;14.91;63.59;99019.38;5054271;28;20021;-51
2021/10/22 07:25:30;;;;;;;14.95;5.65;;;;;;;15.11;63.77;99021.78;5054251;28;20504;-50
2021/10/22 07:27:56;;;;;;;31.08;25.50;;;;;;;15.43;62.92;99029.50;5053958;28;20116;-51
2021/10/22 07:30:22;;;;;;;15.82;12.93;;;;;;;15.90;62.20;99026.28;5054082;28;20021;-50
2021/10/22 07:32:50;;;;;;;18.05;14.38;;;;;;;16.62;60.54;99027.94;5054054;28;20044;-51
2021/10/22 07:35:17;;;;;;;31.15;22.98;;;;;;;17.07;59.05;99027.38;5054005;28;20032;-51
2021/10/22 07:37:44;;;;;;;32.60;25.63;;;;;;;17.23;58.65;99034.59;5053940;28;20021;-51
2021/10/22 07:40:10;;;;;;;32.25;24.48;;;;;;;17.34;58.00;99040.88;5053990;28;20025;-51
2021/10/22 07:42:36;;;;;;;14.25;3.13;;;;;;;17.49;57.61;99043.03;5053858;28;20028;-51
2021/10/22 07:45:06;;;;;;;15.27;5.95;;;;;;;18.06;56.25;99040.34;5053807;28;20021;-51
2021/10/22 07:47:36;;;;;;;17.55;7.78;;;;;;;18.36;55.15;99049.88;5053838;28;20025;-50
2021/10/22 07:50:05;;;;;;;34.50;22.33;;;;;;;18.40;54.60;99053.66;5053092;28;20045;-50
2021/10/22 07:52:31;;;;;;;10.75;5.07;;;;;;;18.67;53.90;99061.78;5035784;28;20104;-51
2021/10/22 07:54:59;;;;;;;16.73;9.35;;;;;;;18.64;53.87;99054.28;5053631;28;20528;-50
2021/10/22 07:57:32;;;;;;;11.18;6.97;;;;;;;18.64;53.54;99061.47;5035685;28;20079;-51
2021/10/22 07:59:59;;;;;;;16.38;5.10;;;;;;;18.66;53.57;99062.03;5053534;28;20120;-51
2021/10/22 08:02:25;;;;;;;16.95;10.98;;;;;;;19.71;52.11;99062.03;5053504;28;20025;-48
2021/10/22 08:04:52;;;;;;;35.88;31.92;;;;;;;20.33;49.71;99060.72;5053443;28;20107;-48
2021/10/22 08:07:29;;;;;;;12.80;11.05;;;;;;;20.22;48.65;99054.53;5053420;28;20033;-47
2021/10/22 08:09:55;;;;;;;220.50;181.38;;;;;;;20.62;46.92;99063.09;5053235;28;20025;-47
2021/10/22 08:12:21;;;;;;;503.90;408.40;;;;;;;20.47;46.85;99061.09;5051984;28;20037;-47
2021/10/22 08:14:47;;;;;;;365.42;296.45;;;;;;;19.88;47.49;99083.25;5053292;28;20083;-48
2021/10/22 08:17:16;;;;;;;67.90;56.63;;;;;;;19.39;48.46;99085.88;5052538;28;20025;-48
2021/10/22 08:19:42;;;;;;;33.83;30.45;;;;;;;18.72;48.88;99095.59;5053206;28;20465;-47
2021/10/22 08:24:55;;;;;;;14.10;11.80;;;;;;;18.07;50.66;99103.06;5053218;28;20139;-47
2021/10/22 08:27:21;;;;;;;23.45;19.25;;;;;;;18.08;51.13;99102.00;5052921;28;20017;-47
2021/10/22 08:29:49;;;;;;;8.02;3.75;;;;;;;18.44;50.57;99110.59;5052815;28;20045;-47
2021/10/22 08:32:15;;;;;;;21.50;9.52;;;;;;;20.05;47.63;99101.81;5053156;28;20029;-47
2021/10/22 08:34:41;;;;;;;10.50;3.78;;;;;;;21.87;43.09;99097.03;5034913;28;20048;-49
2021/10/22 08:37:07;;;;;;;7.07;1.85;;;;;;;23.35;39.44;99095.31;5052772;28;20036;-48
2021/10/22 08:39:39;;;;;;;7.93;2.40;;;;;;;24.26;37.67;99092.41;5053118;28;20025;-48
2021/10/22 08:42:05;;;;;;;8.25;2.30;;;;;;;25.12;35.50;99084.63;5052717;28;20171;-48
2021/10/22 08:44:32;;;;;;;17.33;4.90;;;;;;;25.89;34.14;99099.78;5052775;28;20025;-48
2021/10/22 08:47:01;;;;;;;11.93;5.80;;;;;;;26.60;32.70;99095.22;5034756;28;20116;-49
2021/10/22 08:49:27;;;;;;;8.45;2.35;;;;;;;26.92;32.23;99101.63;5051282;28;20043;-47
2021/10/22 08:51:56;;;;;;;9.98;2.63;;;;;;;27.30;31.85;99096.06;5052274;28;20053;-48
2021/10/22 08:54:22;;;;;;;11.52;4.10;;;;;;;27.42;31.30;99112.50;5052985;28;20029;-49
2021/10/22 08:56:48;;;;;;;9.07;2.03;;;;;;;27.47;31.16;99109.72;5052475;28;20040;-49
2021/10/22 08:59:13;;;;;;;13.95;1.88;;;;;;;27.74;30.21;99104.56;5052474;28;20112;-49
2021/10/22 09:02:16;;;;;;;7.78;1.48;;;;;;;27.73;30.08;99105.66;5052353;28;20414;-48
2021/10/22 09:04:43;;;;;;;6.32;1.90;;;;;;;27.83;29.65;99110.81;5051057;28;20079;-48
2021/10/22 09:07:15;;;;;;;6.32;1.33;;;;;;;27.91;28.91;99112.84;5052303;28;20434;-49
2021/10/22 09:09:43;;;;;;;3.00;1.67;;;;;;;27.91;28.73;99112.03;5052275;28;20561;-49
2021/10/22 09:12:10;;;;;;;9.90;1.40;;;;;;;27.82;28.49;99117.34;5052166;28;20117;-48
2021/10/22 09:14:36;;;;;;;10.27;1.60;;;;;;;27.97;28.79;99122.44;5052151;28;20079;-49
2021/10/22 09:17:10;;;;;;;7.00;1.73;;;;;;;28.21;29.00;99114.03;5052118;28;20390;-48
2021/10/22 09:19:37;;;;;;;;;;;;;;;28.63;29.34;99116.53;5052565;28;20087;-49
2021/10/22 09:22:35;;;;;;;8.85;1.80;;;;;;;28.55;28.78;99120.78;5051948;28;19916;-49
2021/10/22 09:25:07;;;;;;;12.23;2.92;;;;;;;28.72;28.09;99114.69;5018323;28;20080;-48
2021/10/22 09:27:44;;;;;;;6.90;1.70;;;;;;;28.52;26.94;99124.09;5051504;28;20159;-49
2021/10/22 09:30:38;;;;;;;17.67;6.72;;;;;;;28.56;27.15;99127.00;5051731;28;20078;-49
2021/10/22 09:33:16;;;;;;;15.18;2.33;;;;;;;28.49;26.71;99120.09;5044748;28;20038;-49
2021/10/22 09:35:47;;;;;;;7.22;1.35;;;;;;;28.62;26.38;99126.53;5034012;28;20028;-49
2021/10/22 09:38:22;;;;;;;8.40;1.75;;;;;;;28.41;26.71;99128.94;5034024;28;20178;-49
2021/10/22 09:40:52;;;;;;;4.15;1.52;;;;;;;28.92;26.02;99128.78;5051784;28;20403;-49
2021/10/22 09:43:19;;;;;;;9.30;1.40;;;;;;;29.20;25.77;99129.38;5051689;28;20029;-48
2021/10/22 09:45:47;;;;;;;5.70;1.15;;;;;;;29.46;25.18;99132.16;5051718;28;20441;-49
2021/10/22 09:48:32;;;;;;;5.55;1.35;;;;;;;29.34;26.01;99123.84;5051677;28;20033;-48
2021/10/22 09:51:26;;;;;;;7.20;1.48;;;;;;;29.20;25.94;99113.97;5051514;28;20076;-49
2021/10/22 09:53:57;;;;;;;4.90;1.60;;;;;;;28.18;26.92;99122.75;5051720;28;20040;-49
2021/10/22 09:56:25;;;;;;;15.05;4.68;;;;;;;27.92;27.95;99119.84;5017404;28;20066;-49
2021/10/22 09:59:06;;;;;;;4.43;1.50;;;;;;;28.97;26.64;99115.09;5051566;28;20017;-48
2021/10/22 10:01:38;;;;;;;9.75;2.03;;;;;;;29.43;25.14;99101.13;5050231;28;20025;-49
2021/10/22 10:04:07;;;;;;;2.75;1.15;;;;;;;28.60;25.36;99117.97;5051603;28;20025;-49
2021/10/22 10:06:34;;;;;;;3.25;1.00;;;;;;;28.37;26.12;99121.75;5051543;28;20025;-48
2021/10/22 10:09:06;;;;;;;10.02;2.72;;;;;;;28.04;26.30;99125.50;5051419;28;20029;-48
2021/10/22 10:11:32;;;;;;;4.63;1.23;;;;;;;27.83;27.18;99135.94;5051504;28;20395;-49
2021/10/22 10:14:00;;;;;;;2.60;0.90;;;;;;;26.76;28.39;99138.78;5051418;28;20110;-49
2021/10/22 10:16:29;;;;;;;2.78;1.02;;;;;;;25.94;29.62;99134.69;5051619;28;20036;-48
2021/10/22 10:19:14;;;;;;;8.80;1.17;;;;;;;25.78;29.28;99144.84;5033555;28;20029;-48
2021/10/22 10:21:44;;;;;;;6.70;1.00;;;;;;;25.73;29.79;99152.16;5033537;28;20033;-48
2021/10/22 10:24:13;;;;;;;7.50;0.90;;;;;;;25.63;29.56;99151.19;5051411;28;20048;-48
2021/10/22 10:26:39;;;;;;;5.13;1.00;;;;;;;25.50;29.89;99163.47;5051366;28;20025;-48
2021/10/22 10:29:08;;;;;;;4.32;1.60;;;;;;;25.01;30.34;99161.81;5033414;28;20021;-50
2021/10/22 10:31:40;;;;;;;6.30;1.45;;;;;;;25.29;30.08;99154.03;5051310;28;20100;-48
2021/10/22 10:34:30;;;;;;;2.88;1.00;;;;;;;24.57;31.20;99168.13;5033430;28;20025;-47
2021/10/22 10:37:04;;;;;;;8.80;1.40;;;;;;;24.31;31.50;99168.28;5051442;28;20198;-47
2021/10/22 10:39:39;;;;;;;3.13;1.33;;;;;;;23.82;32.46;99174.44;5052104;28;20592;-48
2021/10/22 10:42:30;;;;;;;6.22;1.30;;;;;;;23.48;32.69;99182.31;5055069;28;20474;-48
2021/10/22 10:45:09;;;;;;;3.28;1.58;;;;;;;23.79;32.90;99175.00;5055069;28;20394;-48
2021/10/22 10:47:44;;;;;;;6.10;1.00;;;;;;;24.43;31.87;99173.28;5055044;28;20052;-47
2021/10/22 10:50:12;;;;;;;5.80;1.33;;;;;;;24.08;31.53;99185.84;5054687;28;20041;-48
2021/10/22 10:52:38;;;;;;;6.63;1.70;;;;;;;23.77;31.83;99184.38;5054949;28;20108;-48
2021/10/22 10:55:36;;;;;;;13.35;1.63;;;;;;;24.61;31.19;99173.72;5054792;28;20052;-48
2021/10/22 10:58:07;;;;;;;20.17;2.10;;;;;;;25.44;29.87;99172.66;5054801;28;20067;-48
2021/10/22 11:00:49;;;;;;;8.77;1.38;;;;;;;26.35;28.46;99163.69;5036734;28;20055;-49
2021/10/22 11:03:20;;;;;;;3.80;1.30;;;;;;;26.07;27.60;99171.59;5036843;28;20104;-50
2021/10/22 11:05:50;;;;;;;7.03;1.30;;;;;;;24.22;30.08;99188.72;5054674;28;20025;-48
2021/10/22 11:08:18;;;;;;;4.03;1.00;;;;;;;24.09;30.65;99179.41;5054491;28;20029;-50
2021/10/22 11:11:13;;;;;;;8.18;1.77;;;;;;;25.32;29.51;99180.34;5054496;28;20036;-48
2021/10/22 11:13:49;;;;;;;4.05;1.00;;;;;;;26.54;27.65;99189.75;5054534;28;20067;-48
2021/10/22 11:16:24;;;;;;;10.95;1.80;;;;;;;27.09;26.04;99185.34;5054508;28;20029;-48
2021/10/22 11:18:54;;;;;;;;;;;;;;;26.10;26.24;99181.00;5054915;28;20144;-49
2021/10/22 11:21:26;;;;;;;6.20;1.38;;;;;;;24.07;29.16;99186.13;5054309;28;20005;-47
2021/10/22 11:23:53;;;;;;;20.48;2.30;;;;;;;22.67;31.09;99186.72;5054325;28;20032;-48
2021/10/22 11:26:20;;;;;;;19.23;1.65;;;;;;;21.86;32.28;99188.94;5052965;28;20033;-48
2021/10/22 11:28:50;;;;;;;3.30;0.93;;;;;;;21.77;31.88;99174.47;5052818;28;20029;-48
2021/10/22 11:31:39;;;;;;;14.90;2.88;;;;;;;20.95;32.59;99176.69;5054128;28;20120;-48
2021/10/22 11:34:06;;;;;;;9.80;2.00;;;;;;;20.53;34.19;99180.88;5052927;28;20098;-47
2021/10/22 11:36:33;;;;;;;10.50;1.85;;;;;;;20.48;34.33;99186.19;5054043;28;20017;-48
2021/10/22 11:39:15;;;;;;;11.88;2.00;;;;;;;20.22;34.87;99174.47;5053934;28;20033;-48